Last 24 Hours

Pinon Hills

Hourly Data | America/Los_Angeles
as of 5/7/26 11:17 AM PDT
Date & Time Temp (°F) RH (%) Dew Pt (°F) Wind Dir (°) Wind Spd (mph) Wind Gust (mph) Pressure (mb) Barometric Press (inHg) Soil Temp (°F) Solar Rad (W/m2) Latest Rain (In) Daily Rain (In) Daily Min Temp (°F) Daily Max Temp (°F) Daily Max Wind (mph) Daily ETo (in)
5/7/26 - 1100 74.1 25 36.0 N | 4 4.3 11.8 1,011.6 29.84 65.8 857 0.00 0.00 57.6 75.9 14.9 0.077
5/7/26 - 1000 70.9 29 37.2 N | 356 3.0 7.5 1,012.6 29.87 65.5 706 0.00 0.00 57.6 73.2 14.9 0.053
5/7/26 - 0900 68.5 31 36.5 NNE | 13 2.3 6.1 1,013.4 29.89 65.5 513 0.00 0.00 57.6 69.6 14.9 0.034
5/7/26 - 0800 66.4 33 36.0 NW | 308 1.7 5.0 1,013.7 29.90 65.8 294 0.00 0.00 57.6 69.1 14.9 0.021
5/7/26 - 0700 63.4 31 32.2 SW | 217 5.9 12.3 1,014.1 29.92 66.1 93 0.00 0.00 57.6 66.4 14.9 0.015
5/7/26 - 0600 61.4 32 31.6 SW | 217 5.3 11.6 1,014.5 29.93 66.4 1 0.00 0.00 57.6 64.2 14.9 0.011
5/7/26 - 0500 61.4 33 32.0 SW | 221 5.8 12.9 1,014.6 29.93 66.8 0 0.00 0.00 58.0 64.1 14.9 0.010
5/7/26 - 0400 63.5 30 31.9 SW | 216 8.6 13.4 1,014.1 29.91 67.2 0 0.00 0.00 59.9 64.1 14.9 0.008
5/7/26 - 0300 63.0 31 31.8 SW | 220 7.0 13.2 1,014.4 29.92 67.5 0 0.00 0.00 59.9 64.1 14.9 0.005
5/7/26 - 0200 63.0 33 33.2 SW | 214 8.9 14.9 1,014.7 29.93 68.0 0 0.00 0.00 59.9 64.1 14.9 0.003
5/7/26 - 0100 62.1 38 36.2 SW | 224 5.3 12.3 1,014.9 29.94 68.4 0 0.00 0.00 38.1 72.3 19.3 0.221
5/7/26 - 0000 63.4 39 37.7 SW | 218 7.9 14.7 1,014.5 29.93 68.8 0 0.00 0.00 38.1 72.3 19.3 0.219
5/6/26 - 2300 62.1 41 38.3 SW | 228 4.9 13.4 1,014.8 29.94 69.1 0 0.00 0.00 38.1 72.3 19.3 0.217
5/6/26 - 2200 62.0 41 38.1 SW | 234 4.3 13.2 1,014.7 29.93 69.4 0 0.00 0.00 38.1 72.3 19.3 0.216
5/6/26 - 2100 61.8 32 31.6 SSW | 213 5.1 11.2 1,014.1 29.92 69.5 0 0.00 0.00 38.1 72.3 19.3 0.215
5/6/26 - 2000 67.4 24 29.3 E | 86 3.3 13.2 1,011.9 29.85 69.3 30 0.00 0.00 38.1 72.3 19.3 0.213
5/6/26 - 1900 70.1 23 30.7 NE | 37 5.4 12.7 1,010.8 29.82 68.7 189 0.00 0.00 38.1 72.3 19.3 0.213
5/6/26 - 1800 70.7 23 31.4 NE | 47 6.4 19.3 1,010.6 29.81 67.9 409 0.00 0.00 38.1 72.3 19.3 0.206
5/6/26 - 1700 71.0 26 34.0 NE | 46 5.5 14.7 1,010.5 29.81 66.7 617 0.00 0.00 38.1 72.3 16.7 0.193
5/6/26 - 1600 70.2 28 36.0 NE | 48 6.9 16.4 1,011.1 29.83 65.3 782 0.00 0.00 38.1 71.3 16.7 0.175
5/6/26 - 1500 69.0 31 36.8 NE | 38 6.0 16.4 1,012.0 29.85 64.0 929 0.00 0.00 38.1 70.4 16.7 0.153
5/6/26 - 1400 68.3 31 36.5 NNE | 15 6.0 16.7 1,012.4 29.87 62.9 980 0.00 0.00 38.1 69.9 16.7 0.128
5/6/26 - 1300 66.1 32 35.7 NE | 40 5.0 11.8 1,013.4 29.90 62.3 993 0.00 0.00 38.1 67.6 13.8 0.102
5/6/26 - 1200 64.3 34 35.6 N | 350 4.4 13.4 1,014.1 29.92 61.8 947 0.00 0.00 38.1 66.0 13.8 0.076
5/6/26 - 1100 62.1 38 36.5 NNW | 338 5.7 13.8 1,014.5 29.93 61.3 845 0.00 0.00 38.1 64.1 13.8 0.053
Max 74.1 41 38.3 - 8.9 19.3 1,014.9 29.94 69.5 993 0.00 0.00 59.9 75.9 19.3 0.221
Avg 65.8 32 34.5 - 5.4 12.9 1,013.3 29.89 66.4 367 0.00 - - - - -
Min 61.4 23 29.3 - 1.7 5.0 1,010.5 29.81 61.3 0 0.00 0.00 38.1 64.1 13.8 0.003
Total - - - - - - - - - - 0.00 - - - - -